Time;durP1;ratioP1;P1;durP2;ratioP2;P2;SDS_P1;SDS_P2;PMS_P1;PMS_P2;Temp;Humidity;BMP_temperature;BMP_pressure;BME280_temperature;BME280_humidity;BME280_pressure;Samples;Min_cycle;Max_cycle;Signal;HPM_P1;HPM_P2
2023/03/28 00:01:11;;;;;;;1.42;0.50;;;3.00;74.20;;;;;;4936613;28;20202;-81
2023/03/28 00:03:39;;;;;;;1.75;0.50;;;3.00;74.50;;;;;;4967607;28;20050;-81
2023/03/28 00:06:15;;;;;;;1.52;0.43;;;2.90;74.70;;;;;;4954494;28;20130;-80
2023/03/28 00:08:44;;;;;;;1.52;0.57;;;2.90;75.00;;;;;;4957128;28;20067;-81
2023/03/28 00:11:18;;;;;;;3.90;0.50;;;2.90;75.40;;;;;;4957012;28;20047;-81
2023/03/28 00:13:56;;;;;;;3.00;0.98;;;2.80;75.40;;;;;;4948869;28;20518;-81
2023/03/28 00:16:31;;;;;;;1.88;0.47;;;2.80;75.60;;;;;;4948537;28;20054;-80
2023/03/28 00:19:01;;;;;;;1.70;0.57;;;2.70;75.70;;;;;;4946094;28;20046;-81
2023/03/28 00:21:31;;;;;;;1.27;0.65;;;2.70;75.90;;;;;;4966516;28;20054;-81
2023/03/28 00:24:01;;;;;;;2.10;0.50;;;2.40;76.10;;;;;;4958972;28;20050;-79
2023/03/28 00:26:34;;;;;;;2.15;0.70;;;2.70;76.20;;;;;;4961861;28;20055;-79
2023/03/28 00:29:04;;;;;;;1.17;0.52;;;2.70;75.70;;;;;;4961600;28;20074;-81
2023/03/28 00:31:33;;;;;;;3.55;0.90;;;2.50;75.80;;;;;;4964285;28;20129;-81
2023/03/28 00:34:01;;;;;;;2.75;1.00;;;1.60;76.20;;;;;;4971093;28;20081;-80
2023/03/28 00:36:31;;;;;;;2.28;1.02;;;2.60;77.10;;;;;;4966583;28;20067;-82
2023/03/28 00:39:00;;;;;;;3.05;1.40;;;2.50;77.60;;;;;;4948573;28;22607;-81
2023/03/28 00:41:31;;;;;;;2.45;1.00;;;2.50;78.00;;;;;;4959661;28;20062;-80
2023/03/28 00:44:01;;;;;;;2.70;1.38;;;2.50;78.60;;;;;;4965132;28;20050;-81
2023/03/28 00:46:40;;;;;;;2.10;0.50;;;2.40;79.10;;;;;;4935218;28;20050;-81
2023/03/28 00:49:12;;;;;;;2.78;0.90;;;2.40;79.30;;;;;;4938441;28;20050;-81
2023/03/28 00:51:48;;;;;;;1.83;0.73;;;2.40;79.70;;;;;;4969126;28;20141;-80
2023/03/28 00:54:19;;;;;;;2.55;0.90;;;2.30;80.00;;;;;;4941818;28;20134;-81
2023/03/28 00:56:51;;;;;;;1.55;0.55;;;3.00;80.40;;;;;;4942042;28;20050;-80
2023/03/28 00:59:25;;;;;;;1.65;0.60;;;2.40;80.60;;;;;;4951813;28;20075;-79
2023/03/28 01:01:54;;;;;;;2.53;0.88;;;2.30;80.70;;;;;;4956511;28;20137;-80
2023/03/28 01:04:24;;;;;;;4.95;0.88;;;2.30;80.90;;;;;;4971399;28;20098;-81
2023/03/28 01:06:57;;;;;;;2.17;0.70;;;1.70;80.70;;;;;;4943937;28;20059;-80
2023/03/28 01:09:27;;;;;;;2.08;0.57;;;2.20;81.30;;;;;;4952878;28;20057;-81
2023/03/28 01:11:57;;;;;;;2.60;0.60;;;2.20;81.50;;;;;;4967104;28;20054;-81
2023/03/28 01:14:28;;;;;;;2.25;0.40;;;2.30;81.60;;;;;;4952898;28;20194;-81
2023/03/28 01:16:57;;;;;;;2.67;1.00;;;2.30;81.90;;;;;;4934024;28;20130;-79
2023/03/28 01:19:57;;;;;;;2.47;0.63;;;2.30;81.30;;;;;;4946188;28;20138;-81
2023/03/28 01:22:43;;;;;;;6.97;0.55;;;2.30;81.50;;;;;;4947105;28;20047;-80
2023/03/28 01:26:17;;;;;;;2.00;0.60;;;2.20;81.30;;;;;;4964076;28;20047;-79
2023/03/28 01:29:20;;;;;;;1.70;0.82;;;2.30;81.00;;;;;;4894040;29;20505;-79
2023/03/28 01:32:27;;;;;;;2.25;0.60;;;2.30;80.60;;;;;;4944154;28;20065;-79
2023/03/28 01:35:19;;;;;;;2.35;0.80;;;2.30;81.10;;;;;;4917252;28;22970;-78
2023/03/28 01:37:55;;;;;;;2.63;0.90;;;2.30;80.60;;;;;;4965248;28;20070;-80
2023/03/28 01:41:13;;;;;;;2.63;1.00;;;2.20;81.10;;;;;;4952966;28;20047;-81
2023/03/28 01:44:31;;;;;;;2.65;1.00;;;2.20;81.50;;;;;;4919909;29;20075;-81
2023/03/28 01:47:01;;;;;;;4.43;1.48;;;2.20;81.30;;;;;;4897684;29;20032;-81
2023/03/28 01:49:36;;;;;;;3.20;1.17;;;2.20;81.20;;;;;;4924319;28;20065;-81
2023/03/28 01:52:09;;;;;;;2.63;0.82;;;2.20;81.20;;;;;;4963349;28;20584;-81
2023/03/28 01:54:40;;;;;;;;;;;2.20;81.40;;;;;;4938407;28;20115;-80
2023/03/28 01:57:13;;;;;;;2.85;1.27;;;2.30;81.20;;;;;;4958691;28;19926;-81
2023/03/28 01:59:47;;;;;;;2.10;1.08;;;1.70;81.50;;;;;;4952824;28;20050;-81
2023/03/28 02:02:42;;;;;;;3.17;1.00;;;2.10;81.60;;;;;;4967804;28;20125;-81
2023/03/28 02:05:28;;;;;;;3.58;0.95;;;2.10;82.00;;;;;;4953488;28;20476;-81
2023/03/28 02:07:59;;;;;;;2.20;0.93;;;2.10;82.30;;;;;;4939198;28;20102;-81
2023/03/28 02:10:41;;;;;;;2.55;0.88;;;2.20;82.90;;;;;;4923965;29;20095;-81
2023/03/28 02:13:32;;;;;;;2.95;0.93;;;2.10;82.90;;;;;;4944430;28;20070;-77
2023/03/28 02:16:21;;;;;;;1.95;1.10;;;2.10;83.00;;;;;;4922438;29;22859;-80
2023/03/28 02:19:11;;;;;;;2.95;0.90;;;2.10;83.10;;;;;;4925596;29;20048;-78
2023/03/28 02:22:26;;;;;;;2.35;0.98;;;2.10;83.80;;;;;;4937117;29;20173;-79
2023/03/28 02:25:12;;;;;;;2.45;1.40;;;2.10;84.10;;;;;;4935915;28;20042;-80
2023/03/28 02:28:05;;;;;;;2.75;1.30;;;2.10;84.60;;;;;;4939223;29;20044;-81
2023/03/28 02:30:41;;;;;;;2.85;1.10;;;2.10;85.00;;;;;;4921340;29;20500;-80
2023/03/28 02:33:32;;;;;;;3.13;1.05;;;2.10;85.60;;;;;;4913278;29;20055;-81
2023/03/28 02:36:27;;;;;;;1.75;0.80;;;2.10;86.10;;;;;;4923842;29;20052;-80
2023/03/28 02:39:13;;;;;;;3.15;1.02;;;0.60;86.00;;;;;;4928543;29;20415;-79
2023/03/28 02:42:00;;;;;;;3.33;1.25;;;2.10;87.10;;;;;;4921262;29;20052;-81
2023/03/28 02:45:02;;;;;;;4.38;1.08;;;2.10;87.30;;;;;;4908058;29;20142;-79
2023/03/28 02:47:48;;;;;;;4.22;1.17;;;2.00;87.80;;;;;;4941319;28;20058;-81
2023/03/28 02:50:30;;;;;;;3.47;1.20;;;2.10;87.80;;;;;;4913701;29;20060;-80
2023/03/28 02:53:04;;;;;;;3.40;0.90;;;2.00;88.20;;;;;;4917851;29;20055;-81
2023/03/28 02:55:43;;;;;;;4.07;1.25;;;2.00;88.40;;;;;;4928979;29;20332;-80
2023/03/28 02:58:41;;;;;;;1.27;0.70;;;0.90;88.20;;;;;;4930844;29;20110;-80
2023/03/28 03:01:09;;;;;;;3.28;1.27;;;2.00;89.50;;;;;;4922622;29;20058;-81
2023/03/28 03:03:36;;;;;;;4.15;1.20;;;2.00;90.20;;;;;;4902822;29;20056;-80
2023/03/28 03:06:06;;;;;;;3.85;1.20;;;1.00;89.40;;;;;;4943458;28;20039;-81
2023/03/28 03:08:37;;;;;;;3.63;1.20;;;2.00;89.80;;;;;;4929342;28;20059;-79
2023/03/28 03:11:05;;;;;;;2.95;1.35;;;2.00;90.30;;;;;;4955159;28;20523;-80
2023/03/28 03:13:32;;;;;;;2.65;1.17;;;1.90;90.40;;;;;;4966188;28;20518;-81
2023/03/28 03:16:02;;;;;;;1.98;1.00;;;1.30;90.40;;;;;;4958442;28;20129;-79
2023/03/28 03:18:31;;;;;;;2.85;0.88;;;1.90;90.80;;;;;;4939444;28;20039;-80
2023/03/28 03:21:00;;;;;;;2.20;1.10;;;0.70;90.50;;;;;;4949413;28;22817;-81
2023/03/28 03:23:28;;;;;;;3.65;1.88;;;1.90;90.90;;;;;;4960992;28;20186;-80
2023/03/28 03:25:57;;;;;;;3.42;1.30;;;1.90;90.90;;;;;;4950434;28;20145;-81
2023/03/28 03:28:32;;;;;;;2.80;1.27;;;1.90;91.10;;;;;;4948497;28;20047;-79
2023/03/28 03:31:02;;;;;;;5.55;1.92;;;1.80;91.40;;;;;;4962655;28;20048;-82
2023/03/28 03:33:49;;;;;;;4.10;1.23;;;1.80;91.70;;;;;;4953897;28;20135;-82
2023/03/28 03:36:20;;;;;;;4.00;1.23;;;1.00;91.70;;;;;;4951754;28;20506;-80
2023/03/28 03:38:48;;;;;;;3.30;1.40;;;1.90;92.20;;;;;;4960873;28;20047;-80
2023/03/28 03:41:20;;;;;;;2.95;1.38;;;2.10;92.60;;;;;;4955852;28;20137;-82
2023/03/28 03:43:48;;;;;;;3.85;1.63;;;1.80;92.80;;;;;;4964165;28;20055;-80
2023/03/28 03:46:15;;;;;;;3.85;1.90;;;1.50;93.10;;;;;;4966464;28;20110;-82
2023/03/28 03:49:02;;;;;;;6.30;2.38;;;1.80;93.50;;;;;;4942089;29;20056;-81
2023/03/28 03:51:32;;;;;;;4.30;2.45;;;1.80;93.80;;;;;;4928965;29;20228;-82
2023/03/28 03:54:00;;;;;;;4.15;2.33;;;1.70;94.10;;;;;;4936550;29;20054;-81
2023/03/28 03:56:36;;;;;;;4.85;2.40;;;2.10;94.50;;;;;;4932949;29;20054;-80
2023/03/28 03:59:04;;;;;;;4.57;2.90;;;1.60;94.60;;;;;;4936597;29;20095;-82
2023/03/28 04:01:38;;;;;;;4.47;2.65;;;1.70;94.90;;;;;;4918248;29;20052;-81
2023/03/28 04:04:22;;;;;;;4.70;2.38;;;0.20;94.90;;;;;;4921249;29;20047;-81
2023/03/28 04:07:12;;;;;;;4.60;2.40;;;1.70;95.50;;;;;;4917798;29;22895;-80
2023/03/28 04:09:39;;;;;;;5.35;2.78;;;1.70;95.70;;;;;;4931976;29;20126;-81
2023/03/28 04:12:10;;;;;;;5.78;2.60;;;1.70;95.90;;;;;;4927876;29;20118;-80
2023/03/28 04:14:45;;;;;;;6.63;3.20;;;1.70;96.20;;;;;;4909646;29;22780;-80
2023/03/28 04:17:40;;;;;;;;;;;1.60;96.40;;;;;;4940684;28;20062;-81
2023/03/28 04:20:14;;;;;;;5.72;3.28;;;1.60;96.40;;;;;;4934813;28;19922;-79
2023/03/28 04:22:59;;;;;;;6.03;3.10;;;1.70;96.60;;;;;;4955672;28;20523;-82
2023/03/28 04:25:30;;;;;;;5.45;2.92;;;1.60;96.80;;;;;;4948356;28;20050;-81
2023/03/28 04:28:03;;;;;;;4.70;2.75;;;1.70;96.90;;;;;;4953773;28;20101;-81
2023/03/28 04:30:37;;;;;;;6.32;2.65;;;1.70;97.00;;;;;;4967254;28;20042;-82
2023/03/28 04:33:24;;;;;;;6.97;2.38;;;1.60;97.20;;;;;;4952725;28;20138;-80
2023/03/28 04:35:58;;;;;;;5.43;2.97;;;1.60;97.40;;;;;;4959802;28;20135;-81
2023/03/28 04:38:31;;;;;;;7.05;3.47;;;1.60;97.40;;;;;;4944579;28;20051;-81
2023/03/28 04:41:15;;;;;;;6.90;2.67;;;1.60;97.40;;;;;;4956500;28;22735;-81
2023/03/28 04:44:01;;;;;;;9.70;2.85;;;0.20;97.20;;;;;;4964863;28;20047;-80
2023/03/28 04:46:32;;;;;;;6.75;2.83;;;1.70;97.70;;;;;;4966607;28;20147;-80
2023/03/28 04:49:08;;;;;;;5.72;3.45;;;1.60;97.90;;;;;;4951256;28;21023;-81
2023/03/28 04:51:35;;;;;;;6.05;3.33;;;1.60;97.90;;;;;;4949333;28;22670;-81
2023/03/28 04:54:04;;;;;;;5.82;2.88;;;1.60;97.80;;;;;;4964381;28;20051;-81
2023/03/28 04:56:47;;;;;;;5.97;2.58;;;1.70;97.70;;;;;;4968588;28;20054;-81
2023/03/28 04:59:25;;;;;;;7.15;2.92;;;2.70;98.20;;;;;;4941893;28;20051;-81
2023/03/28 05:02:12;;;;;;;7.55;3.83;;;1.60;97.70;;;;;;4914995;29;20111;-81
2023/03/28 05:04:49;;;;;;;5.20;2.50;;;1.80;97.80;;;;;;4913127;29;20052;-81
2023/03/28 05:07:16;;;;;;;9.23;4.15;;;1.80;97.70;;;;;;4933833;28;20056;-81
2023/03/28 05:09:44;;;;;;;8.63;3.08;;;1.80;97.40;;;;;;4889298;29;22928;-82
2023/03/28 05:12:12;;;;;;;7.63;3.22;;;1.70;97.30;;;;;;4927483;29;20068;-81
2023/03/28 05:14:57;;;;;;;4.65;2.58;;;1.80;97.20;;;;;;4907984;29;20059;-82
2023/03/28 05:17:24;;;;;;;10.02;2.97;;;1.70;96.80;;;;;;4945785;29;20071;-82
2023/03/28 05:19:58;;;;;;;7.43;2.97;;;1.90;96.50;;;;;;4918010;29;20135;-81
2023/03/28 05:22:31;;;;;;;6.88;3.08;;;1.90;96.40;;;;;;4931237;29;20055;-81
2023/03/28 05:24:59;;;;;;;5.78;2.60;;;1.00;95.70;;;;;;4895923;29;20060;-82
2023/03/28 05:27:29;;;;;;;4.15;2.40;;;0.70;95.20;;;;;;4917100;29;20047;-81
2023/03/28 05:29:56;;;;;;;6.30;2.55;;;2.00;95.50;;;;;;4917994;29;20060;-80
2023/03/28 05:32:24;;;;;;;4.03;2.13;;;2.00;95.40;;;;;;4922740;28;20102;-81
2023/03/28 05:34:54;;;;;;;4.90;2.40;;;2.00;95.20;;;;;;4958441;28;20050;-81
2023/03/28 05:37:27;;;;;;;5.57;2.40;;;2.10;95.10;;;;;;4943643;28;20111;-81
2023/03/28 05:39:57;;;;;;;5.32;2.75;;;2.10;94.80;;;;;;4968288;28;20054;-79
2023/03/28 05:42:24;;;;;;;6.78;3.70;;;2.20;94.60;;;;;;5031537;23;20042;-81
2023/03/28 05:44:54;;;;;;;6.10;2.55;;;2.20;94.30;;;;;;4983920;28;20046;-80
2023/03/28 05:47:40;;;;;;;6.13;3.65;;;2.20;94.00;;;;;;4993923;28;20054;-80
2023/03/28 05:50:10;;;;;;;11.63;6.07;;;2.30;93.50;;;;;;4988353;28;20065;-80
2023/03/28 05:52:37;;;;;;;8.60;4.63;;;2.40;93.20;;;;;;4965503;28;20421;-80
2023/03/28 05:55:06;;;;;;;7.72;3.95;;;2.40;92.80;;;;;;4978472;28;20039;-80
2023/03/28 05:57:34;;;;;;;5.43;2.28;;;2.50;93.00;;;;;;4956166;28;20061;-82
2023/03/28 06:00:24;;;;;;;4.88;2.28;;;2.50;92.90;;;;;;4979207;28;20043;-80
2023/03/28 06:02:55;;;;;;;8.93;2.88;;;2.60;93.30;;;;;;4975497;28;20045;-81
2023/03/28 06:05:35;;;;;;;4.95;2.90;;;2.50;93.10;;;;;;4988425;28;20061;-80
2023/03/28 06:08:08;;;;;;;5.65;2.35;;;2.50;92.40;;;;;;5008951;28;20104;-79
2023/03/28 06:10:36;;;;;;;4.25;2.40;;;2.80;92.30;;;;;;4951453;28;20058;-79
2023/03/28 06:13:18;;;;;;;6.28;2.42;;;2.90;91.60;;;;;;4981404;28;20057;-81
2023/03/28 06:15:47;;;;;;;8.70;2.38;;;2.50;91.60;;;;;;4962947;28;20050;-84
2023/03/28 06:18:16;;;;;;;4.35;2.65;;;2.00;91.30;;;;;;4969635;28;20804;-80
2023/03/28 06:20:45;;;;;;;4.00;2.10;;;3.20;91.00;;;;;;4966552;28;20050;-80
2023/03/28 06:23:13;;;;;;;4.10;2.03;;;3.20;90.50;;;;;;4947415;28;20120;-79
2023/03/28 06:25:42;;;;;;;3.60;1.65;;;3.30;90.10;;;;;;4956013;28;20072;-80
2023/03/28 06:28:11;;;;;;;2.83;1.83;;;3.40;89.90;;;;;;4967327;28;20196;-80
2023/03/28 06:30:58;;;;;;;4.47;2.13;;;3.50;89.80;;;;;;4960883;28;20460;-79
2023/03/28 06:33:26;;;;;;;4.15;1.98;;;3.50;89.40;;;;;;4961977;28;20046;-80
2023/03/28 06:35:53;;;;;;;4.80;2.17;;;3.60;88.70;;;;;;4954705;28;20046;-78
2023/03/28 06:38:22;;;;;;;4.10;1.70;;;3.70;88.40;;;;;;4955936;28;20061;-81
2023/03/28 06:40:52;;;;;;;4.13;1.85;;;3.80;88.90;;;;;;4942213;28;20138;-80
2023/03/28 06:43:20;;;;;;;3.63;1.92;;;3.70;87.60;;;;;;4945685;28;20089;-79
2023/03/28 06:46:04;;;;;;;6.28;2.17;;;3.80;87.20;;;;;;4936491;28;20180;-79
2023/03/28 06:48:32;;;;;;;5.70;1.80;;;3.80;87.50;;;;;;4958271;28;20059;-80
2023/03/28 06:51:21;;;;;;;4.20;2.47;;;3.90;86.90;;;;;;4951752;28;22417;-80
2023/03/28 06:53:48;;;;;;;3.85;2.47;;;3.90;86.20;;;;;;4935860;28;20049;-76
2023/03/28 06:56:20;;;;;;;3.85;2.28;;;4.00;85.80;;;;;;4938784;28;20145;-77
2023/03/28 06:58:47;;;;;;;4.95;2.28;;;4.00;85.20;;;;;;4950787;28;20058;-79
2023/03/28 07:01:18;;;;;;;11.77;8.23;;;4.20;85.50;;;;;;4950209;28;20661;-81
2023/03/28 07:04:02;;;;;;;6.72;5.03;;;4.20;85.30;;;;;;4960253;28;20054;-80
2023/03/28 07:06:30;;;;;;;5.38;3.58;;;4.30;84.60;;;;;;4947871;28;20058;-77
2023/03/28 07:08:57;;;;;;;4.43;2.95;;;4.50;84.60;;;;;;4951857;28;20047;-80
2023/03/28 07:11:35;;;;;;;4.40;2.40;;;4.50;83.00;;;;;;4972254;28;20085;-80
2023/03/28 07:14:03;;;;;;;5.03;1.67;;;4.20;82.60;;;;;;4949359;28;20237;-79
2023/03/28 07:16:30;;;;;;;5.20;2.08;;;4.40;83.40;;;;;;4963614;28;20129;-81
2023/03/28 07:18:58;;;;;;;4.68;2.22;;;4.50;82.60;;;;;;4961573;28;20588;-81
2023/03/28 07:21:31;;;;;;;4.40;2.13;;;4.60;82.10;;;;;;4942594;28;20169;-80
2023/03/28 07:24:00;;;;;;;3.63;1.80;;;4.50;82.60;;;;;;4953174;28;20125;-77
2023/03/28 07:26:35;;;;;;;3.67;1.58;;;4.50;81.60;;;;;;4943050;28;20168;-79
2023/03/28 07:29:04;;;;;;;5.30;2.80;;;4.70;81.60;;;;;;4935687;28;20058;-79
2023/03/28 07:31:31;;;;;;;6.70;4.43;;;4.70;81.50;;;;;;4929914;28;22849;-79
2023/03/28 07:33:59;;;;;;;6.75;4.60;;;4.70;81.70;;;;;;4941949;28;20054;-78
2023/03/28 07:36:28;;;;;;;3.35;1.95;;;4.80;81.30;;;;;;4942333;28;20055;-79
2023/03/28 07:39:03;;;;;;;8.10;3.13;;;3.80;79.80;;;;;;4945587;28;20054;-79
2023/03/28 07:41:32;;;;;;;3.88;1.70;;;5.00;80.90;;;;;;4926852;28;20046;-81
2023/03/28 07:43:59;;;;;;;12.55;5.57;;;4.90;80.20;;;;;;4949059;28;20061;-78
2023/03/28 07:46:26;;;;;;;9.25;4.43;;;5.10;81.00;;;;;;4940031;28;20108;-76
2023/03/28 07:48:55;;;;;;;4.78;2.95;;;5.30;80.30;;;;;;4937791;28;20072;-79
2023/03/28 07:51:23;;;;;;;2.35;2.10;;;5.30;79.10;;;;;;4936730;28;20109;-77
2023/03/28 07:53:50;;;;;;;7.20;3.28;;;5.40;78.20;;;;;;4952557;28;20656;-76
2023/03/28 07:56:18;;;;;;;5.07;2.38;;;5.40;78.20;;;;;;4947554;28;20468;-79
2023/03/28 07:59:05;;;;;;;2.42;1.70;;;5.50;78.20;;;;;;4962117;28;20757;-77
2023/03/28 08:01:33;;;;;;;10.90;7.82;;;5.30;79.60;;;;;;4923717;28;23097;-78
2023/03/28 08:04:02;;;;;;;9.57;4.50;;;4.90;79.70;;;;;;4965360;28;20452;-79
2023/03/28 08:06:51;;;;;;;29.55;17.50;;;5.10;81.00;;;;;;4965910;28;20050;-78
2023/03/28 08:09:18;;;;;;;3.28;1.60;;;5.60;81.70;;;;;;4942186;28;20131;-78
2023/03/28 08:11:48;;;;;;;2.63;1.70;;;5.00;80.80;;;;;;4950190;28;20188;-77
2023/03/28 08:14:17;;;;;;;3.72;1.70;;;4.90;80.90;;;;;;4938527;28;20058;-80
2023/03/28 08:16:45;;;;;;;2.35;1.23;;;5.00;82.00;;;;;;4950946;28;20055;-80
2023/03/28 08:19:13;;;;;;;2.78;1.05;;;5.10;82.80;;;;;;4950216;28;20839;-78
2023/03/28 08:22:06;;;;;;;4.35;1.40;;;7.00;81.20;;;;;;4924372;28;20093;-79
2023/03/28 08:24:42;;;;;;;3.38;1.73;;;5.20;79.30;;;;;;4937888;28;20068;-81
2023/03/28 08:27:12;;;;;;;2.17;1.48;;;5.00;79.80;;;;;;4940663;28;20486;-80
2023/03/28 08:29:42;;;;;;;2.58;1.27;;;4.90;80.70;;;;;;4948206;28;20054;-80
2023/03/28 08:32:10;;;;;;;3.05;0.95;;;5.10;79.90;;;;;;4944636;28;20054;-79
2023/03/28 08:34:39;;;;;;;1.90;0.95;;;5.30;79.50;;;;;;4940818;28;20532;-79
2023/03/28 08:37:20;;;;;;;3.35;1.40;;;5.40;79.10;;;;;;4962926;28;20737;-79
2023/03/28 08:39:49;;;;;;;6.65;2.38;;;5.50;79.50;;;;;;4970953;28;20081;-79
2023/03/28 08:42:37;;;;;;;2.65;0.95;;;5.40;80.50;;;;;;4945598;28;20054;-79
2023/03/28 08:45:38;;;;;;;3.35;0.98;;;5.50;79.10;;;;;;4961314;28;20545;-79
2023/03/28 08:48:15;;;;;;;2.00;0.70;;;5.60;77.70;;;;;;4945133;28;21155;-79
2023/03/28 08:50:58;;;;;;;0.98;0.50;;;5.70;77.10;;;;;;4952976;28;20057;-78
2023/03/28 08:53:37;;;;;;;1.73;0.70;;;5.40;77.80;;;;;;4947057;28;20062;-80
2023/03/28 08:56:07;;;;;;;4.60;1.55;;;5.40;77.90;;;;;;4968918;28;20046;-78
2023/03/28 08:59:15;;;;;;;3.80;0.57;;;5.30;78.10;;;;;;4943435;28;20110;-79
2023/03/28 09:01:43;;;;;;;7.57;3.85;;;5.20;77.70;;;;;;4940972;28;22423;-79
2023/03/28 09:04:33;;;;;;;6.57;2.38;;;5.20;78.00;;;;;;4968831;28;20053;-77
2023/03/28 09:07:37;;;;;;;6.43;4.57;;;5.30;77.10;;;;;;4942619;28;20120;-80
2023/03/28 09:10:17;;;;;;;2.45;0.88;;;5.00;75.70;;;;;;4954333;28;20508;-80
2023/03/28 09:13:10;;;;;;;2.17;1.70;;;5.90;74.90;;;;;;4967542;28;20050;-78
2023/03/28 09:15:58;;;;;;;2.22;0.70;;;6.10;75.00;;;;;;4959431;28;20069;-78
2023/03/28 09:18:59;;;;;;;2.20;0.63;;;6.30;72.90;;;;;;4945025;28;21768;-78
2023/03/28 09:21:40;;;;;;;1.05;0.38;;;6.30;70.80;;;;;;4959061;28;20054;-79
2023/03/28 09:24:11;;;;;;;1.55;0.50;;;6.30;71.20;;;;;;4947518;28;20307;-78
2023/03/28 09:27:20;;;;;;;2.88;0.98;;;6.40;70.90;;;;;;4951600;28;20096;-80
2023/03/28 09:29:50;;;;;;;1.20;0.20;;;6.90;71.50;;;;;;4952461;28;20145;-78
2023/03/28 09:32:23;;;;;;;1.75;0.30;;;6.90;68.60;;;;;;4966256;28;20414;-77
2023/03/28 09:34:50;;;;;;;17.58;9.10;;;6.50;67.90;;;;;;4953514;28;20084;-79
2023/03/28 09:37:27;;;;;;;2.90;0.32;;;6.50;69.00;;;;;;4941834;28;20150;-80
2023/03/28 09:40:00;;;;;;;1.48;0.52;;;6.60;68.90;;;;;;4941091;28;20051;-78
2023/03/28 09:42:47;;;;;;;3.40;0.90;;;6.50;67.70;;;;;;4937164;28;20108;-76
2023/03/28 09:45:35;;;;;;;1.90;0.30;;;6.50;66.30;;;;;;4941367;28;20054;-78
2023/03/28 09:48:32;;;;;;;2.15;0.40;;;6.40;65.00;;;;;;4949579;28;20137;-76
2023/03/28 09:51:05;;;;;;;1.42;0.52;;;6.80;63.30;;;;;;4939985;28;20046;-78
2023/03/28 09:53:36;;;;;;;1.90;0.20;;;6.60;62.70;;;;;;4963696;28;20366;-80
2023/03/28 09:56:26;;;;;;;4.35;0.10;;;6.80;62.90;;;;;;4936134;28;20513;-79
2023/03/28 09:59:03;;;;;;;2.47;0.40;;;6.80;62.80;;;;;;4958373;28;20050;-80
2023/03/28 10:01:45;;;;;;;2.03;0.30;;;6.70;64.30;;;;;;4946000;28;20120;-79
2023/03/28 10:04:45;;;;;;;2.00;0.30;;;6.60;65.80;;;;;;4921762;28;20915;-77
2023/03/28 10:07:41;;;;;;;0.60;0.20;;;6.60;64.20;;;;;;4947817;28;20887;-79
2023/03/28 10:10:27;;;;;;;1.23;0.20;;;6.40;64.90;;;;;;4960763;28;20073;-77
2023/03/28 10:13:10;;;;;;;0.90;0.10;;;6.20;64.70;;;;;;4967453;28;20046;-79
2023/03/28 10:15:44;;;;;;;1.27;0.15;;;6.80;64.70;;;;;;4953482;28;20474;-80
2023/03/28 10:18:31;;;;;;;1.23;0.10;;;7.30;63.70;;;;;;4949864;28;20076;-79
2023/03/28 10:21:23;;;;;;;1.30;0.30;;;6.90;62.00;;;;;;4943983;28;20046;-77
2023/03/28 10:24:11;;;;;;;2.58;0.77;;;6.70;63.30;;;;;;4951484;28;20486;-77
2023/03/28 10:27:27;;;;;;;1.05;0.20;;;6.40;63.40;;;;;;4955042;28;20383;-80
2023/03/28 10:29:56;;;;;;;1.40;0.60;;;6.40;62.60;;;;;;4930995;28;20055;-80
2023/03/28 10:32:30;;;;;;;1.70;0.30;;;6.60;61.80;;;;;;4907638;28;20062;-78
2023/03/28 10:35:29;;;;;;;0.50;0.10;;;6.90;62.70;;;;;;4919915;28;20054;-76
2023/03/28 10:38:19;;;;;;;0.82;0.20;;;7.20;61.90;;;;;;4908952;28;21287;-78
2023/03/28 10:41:30;;;;;;;1.67;0.40;;;7.30;61.10;;;;;;4915850;28;20102;-78
2023/03/28 10:44:25;;;;;;;2.63;0.20;;;7.00;60.00;;;;;;4895231;28;20078;-78
2023/03/28 10:47:04;;;;;;;0.70;0.40;;;7.20;60.30;;;;;;4908809;28;20058;-78
2023/03/28 10:49:58;;;;;;;1.27;0.20;;;7.50;59.90;;;;;;4906554;28;20051;-78
2023/03/28 10:52:39;;;;;;;0.90;0.30;;;7.80;61.00;;;;;;4912458;28;20078;-79
2023/03/28 10:55:18;;;;;;;1.67;0.30;;;7.70;61.60;;;;;;4884545;28;20244;-78
2023/03/28 10:58:36;;;;;;;0.90;0.20;;;7.50;61.30;;;;;;4910980;28;20054;-78
2023/03/28 11:01:19;;;;;;;3.80;0.40;;;7.10;60.40;;;;;;4927623;28;20049;-76
2023/03/28 11:04:15;;;;;;;0.95;0.30;;;7.60;59.70;;;;;;4932316;28;20078;-79
2023/03/28 11:07:11;;;;;;;0.60;0.20;;;7.40;60.90;;;;;;4925077;28;20389;-78
2023/03/28 11:10:43;;;;;;;1.90;0.30;;;7.20;61.50;;;;;;4920798;28;20069;-78
2023/03/28 11:13:32;;;;;;;3.10;0.73;;;7.40;60.10;;;;;;4951301;28;20058;-78
2023/03/28 11:16:09;;;;;;;1.13;0.40;;;7.10;61.00;;;;;;4923367;28;22300;-76
2023/03/28 11:19:26;;;;;;;0.93;0.25;;;7.20;61.90;;;;;;4934107;28;20505;-78
2023/03/28 11:22:11;;;;;;;1.67;0.40;;;7.50;60.50;;;;;;4942728;28;20192;-78
2023/03/28 11:24:47;;;;;;;2.00;0.28;;;7.50;58.60;;;;;;4922310;28;20049;-79
2023/03/28 11:27:45;;;;;;;1.55;0.38;;;6.90;58.70;;;;;;4934988;28;20741;-78
2023/03/28 11:30:34;;;;;;;0.95;0.30;;;6.90;59.10;;;;;;4933969;28;20054;-77
2023/03/28 11:33:29;;;;;;;1.65;0.52;;;7.30;59.60;;;;;;4928608;28;20826;-79
2023/03/28 11:36:13;;;;;;;5.60;1.15;;;7.70;59.10;;;;;;4944452;28;20248;-77
2023/03/28 11:38:51;;;;;;;1.63;0.20;;;7.70;59.50;;;;;;4950055;28;20450;-80
2023/03/28 11:41:25;;;;;;;1.77;0.38;;;8.10;59.60;;;;;;4944056;28;20073;-77
2023/03/28 11:44:30;;;;;;;1.75;0.30;;;7.50;59.60;;;;;;4948773;28;20055;-77
2023/03/28 11:47:15;;;;;;;0.70;0.43;;;7.00;59.20;;;;;;4925394;28;20054;-78
2023/03/28 11:50:01;;;;;;;7.03;5.45;;;7.10;58.50;;;;;;4943199;28;20046;-80
2023/03/28 11:53:26;;;;;;;1.00;0.43;;;7.00;59.60;;;;;;4956102;28;20058;-78
2023/03/28 11:56:03;;;;;;;;;;;7.30;59.70;;;;;;4930665;28;20417;-78
2023/03/28 11:59:26;;;;;;;0.60;0.20;;;7.90;58.80;;;;;;4958189;28;19926;-80
2023/03/28 12:02:01;;;;;;;2.78;0.20;;;7.90;56.10;;;;;;4948585;28;20047;-80
2023/03/28 12:04:41;;;;;;;0.32;0.20;;;8.20;55.70;;;;;;4949171;28;20054;-79
2023/03/28 12:07:24;;;;;;;1.88;0.20;;;8.00;54.90;;;;;;4946462;28;20168;-79
2023/03/28 12:10:19;;;;;;;1.38;0.43;;;7.90;52.90;;;;;;4957264;28;20637;-77
2023/03/28 12:12:49;;;;;;;0.60;0.20;;;8.10;54.80;;;;;;4945745;28;20327;-78
2023/03/28 12:15:26;;;;;;;1.02;0.30;;;7.80;54.20;;;;;;4944591;28;20050;-80
2023/03/28 12:18:45;;;;;;;0.65;0.20;;;7.80;53.80;;;;;;4946359;28;20121;-75
2023/03/28 12:21:34;;;;;;;2.05;0.30;;;8.20;53.60;;;;;;4910773;28;20113;-77
2023/03/28 12:24:23;;;;;;;2.65;0.20;;;8.20;51.00;;;;;;4893315;28;20073;-80
2023/03/28 12:27:16;;;;;;;0.82;0.30;;;8.80;52.10;;;;;;4920716;28;20520;-76
2023/03/28 12:30:06;;;;;;;1.80;0.10;;;8.70;53.30;;;;;;4893763;28;20062;-80
2023/03/28 12:32:41;;;;;;;0.93;0.20;;;8.50;53.50;;;;;;4910927;28;20082;-79
2023/03/28 12:35:47;;;;;;;1.75;0.30;;;8.30;53.10;;;;;;4915710;28;20066;-80
2023/03/28 12:38:29;;;;;;;1.45;0.10;;;8.40;52.90;;;;;;4921306;28;20858;-77
2023/03/28 12:41:40;;;;;;;2.50;0.98;;;8.30;51.30;;;;;;4900769;28;20062;-80
2023/03/28 12:44:16;;;;;;;1.13;0.50;;;8.50;50.80;;;;;;4925031;28;20087;-78
2023/03/28 12:46:56;;;;;;;0.30;0.10;;;7.80;48.40;;;;;;4908126;28;20061;-78
2023/03/28 12:49:46;;;;;;;1.27;0.10;;;8.10;51.20;;;;;;4940804;28;20535;-79
2023/03/28 12:52:37;;;;;;;0.60;0.00;;;8.10;48.70;;;;;;4938497;28;20058;-77
2023/03/28 12:55:24;;;;;;;0.30;0.10;;;8.10;48.80;;;;;;4944588;28;20052;-80
2023/03/28 12:58:29;;;;;;;0.63;0.10;;;8.40;49.60;;;;;;4939815;28;22732;-77
2023/03/28 13:01:08;;;;;;;0.20;0.10;;;8.40;47.50;;;;;;4936717;28;20062;-76
2023/03/28 13:03:53;;;;;;;0.17;0.00;;;8.60;48.00;;;;;;4947745;28;20057;-80
2023/03/28 13:06:40;;;;;;;0.47;0.10;;;8.50;46.10;;;;;;4940727;28;20047;-81
2023/03/28 13:09:50;;;;;;;0.43;0.10;;;8.70;46.60;;;;;;4944445;28;20053;-79
2023/03/28 13:12:23;;;;;;;1.48;0.20;;;8.90;45.80;;;;;;4922642;28;20595;-80
2023/03/28 13:15:15;;;;;;;0.50;0.08;;;8.80;45.40;;;;;;4950032;28;20165;-79
2023/03/28 13:18:07;;;;;;;0.57;0.10;;;8.70;45.60;;;;;;4939154;28;21058;-78
2023/03/28 13:20:46;;;;;;;0.90;0.20;;;8.00;45.40;;;;;;4937170;28;20054;-79
2023/03/28 13:23:18;;;;;;;0.52;0.10;;;8.30;46.80;;;;;;4957205;28;20147;-79
2023/03/28 13:26:03;;;;;;;1.15;0.15;;;7.40;46.30;;;;;;4947355;28;20051;-77
2023/03/28 13:28:46;;;;;;;1.77;0.20;;;7.20;46.10;;;;;;4929974;28;20266;-78
2023/03/28 13:31:16;;;;;;;;;;;6.30;46.30;;;;;;4926481;28;20058;-77
2023/03/28 13:33:47;;;;;;;3.30;1.75;;;6.40;48.00;;;;;;4955842;28;20449;-78
2023/03/28 13:36:21;;;;;;;0.98;0.30;;;6.90;48.40;;;;;;4935302;28;20524;-77
2023/03/28 13:38:59;;;;;;;3.53;0.38;;;6.90;48.20;;;;;;4919208;28;20074;-78
2023/03/28 13:41:40;;;;;;;4.10;0.90;;;6.90;48.90;;;;;;4940978;28;20681;-80
2023/03/28 13:44:19;;;;;;;1.25;0.20;;;6.80;49.10;;;;;;4949924;28;20435;-78
2023/03/28 13:46:51;;;;;;;1.08;0.38;;;6.70;49.00;;;;;;4965178;28;20529;-80
2023/03/28 13:49:22;;;;;;;;;;;6.70;49.20;;;;;;4955001;28;20312;-80
2023/03/28 13:52:03;;;;;;;1.75;0.90;;;6.70;49.10;;;;;;4955043;28;20340;-76
2023/03/28 13:54:31;;;;;;;3.42;0.30;;;6.80;49.70;;;;;;4950010;28;20104;-79
2023/03/28 13:57:07;;;;;;;6.72;0.77;;;7.00;54.30;;;;;;4938819;28;20050;-79
2023/03/28 13:59:48;;;;;;;10.20;1.85;;;7.10;60.00;;;;;;4949623;28;20057;-80
2023/03/28 14:02:18;;;;;;;5.10;1.17;;;7.00;63.10;;;;;;4942598;28;20058;-78